Time,TemperatureF,DewpointF,PressureIn,WindDirection,WindDirectionDegrees,WindSpeedMPH,WindSpeedGustMPH,Humidity,HourlyPrecipIn,Conditions,Clouds,dailyrainin,SoftwareType,DateUTC
2013-05-28 00:00:00,55.6,49.8,30.22,SE,135,0.0,0.0,81,0.00,CLR,,0.00,WeatherDisplay:10.37,2013-05-28 04:00:00,
2013-05-28 00:15:00,55.2,49.8,30.22,SE,135,0.0,0.0,82,0.00,CLR,,0.00,WeatherDisplay:10.37,2013-05-28 04:15:00,
2013-05-28 00:30:00,55.0,49.6,30.22,SE,135,0.0,0.0,82,0.00,CLR,,0.00,WeatherDisplay:10.37,2013-05-28 04:30:00,
2013-05-28 00:45:00,54.9,49.5,30.22,SE,135,0.0,0.0,82,0.00,CLR,,0.00,WeatherDisplay:10.37,2013-05-28 04:45:00,
2013-05-28 01:00:00,54.9,49.8,30.22,SE,135,0.0,0.0,83,0.00,CLR,,0.00,WeatherDisplay:10.37,2013-05-28 05:00:00,
2013-05-28 01:15:00,55.0,50.0,30.22,SE,135,0.0,0.0,83,0.00,CLR,,0.00,WeatherDisplay:10.37,2013-05-28 05:15:00,
2013-05-28 01:30:00,55.2,50.5,30.22,SE,135,0.0,0.0,84,0.00,CLR,,0.00,WeatherDisplay:10.37,2013-05-28 05:30:00,
2013-05-28 01:45:00,55.4,50.3,30.22,SE,135,0.0,0.0,83,0.00,CLR,,0.00,WeatherDisplay:10.37,2013-05-28 05:45:00,
2013-05-28 02:00:00,56.1,51.7,30.22,SE,135,0.0,0.0,85,0.00,CLR,,0.00,WeatherDisplay:10.37,2013-05-28 06:00:00,
2013-05-28 02:15:00,56.8,52.1,30.22,SE,135,0.0,0.0,84,0.00,OVC,,0.00,WeatherDisplay:10.37,2013-05-28 06:15:00,
2013-05-28 02:30:00,57.2,51.8,30.22,SE,135,0.0,0.0,82,0.00,OVC,,0.00,WeatherDisplay:10.37,2013-05-28 06:30:00,
2013-05-28 02:45:00,57.4,51.3,30.22,SE,135,0.0,0.0,80,0.00,OVC,,0.00,WeatherDisplay:10.37,2013-05-28 06:45:00,
2013-05-28 03:00:00,57.6,51.1,30.19,SE,135,0.0,0.0,79,0.00,OVC,,0.00,WeatherDisplay:10.37,2013-05-28 07:00:00,
2013-05-28 03:15:00,57.9,51.1,30.22,SE,135,0.0,0.0,78,0.00,OVC,,0.00,WeatherDisplay:10.37,2013-05-28 07:15:00,
2013-05-28 03:30:00,57.9,50.8,30.19,SE,135,0.0,0.0,77,0.00,OVC,,0.00,WeatherDisplay:10.37,2013-05-28 07:30:00,
2013-05-28 03:45:00,57.9,50.0,30.19,SE,135,0.0,0.0,75,0.00,OVC,,0.00,WeatherDisplay:10.37,2013-05-28 07:45:00,
2013-05-28 04:00:00,57.9,49.7,30.19,SE,141,0.0,0.0,74,0.00,OVC,,0.00,WeatherDisplay:10.37,2013-05-28 08:00:00,
2013-05-28 04:15:00,57.9,49.7,30.19,ESE,120,0.0,0.0,74,0.00,OVC,,0.00,WeatherDisplay:10.37,2013-05-28 08:15:00,
2013-05-28 04:30:00,57.9,48.9,30.19,ESE,120,0.0,0.0,72,0.00,OVC,,0.00,WeatherDisplay:10.37,2013-05-28 08:30:00,
2013-05-28 04:45:00,57.9,48.9,30.19,ESE,120,0.0,0.0,72,0.00,FEW,,0.00,WeatherDisplay:10.37,2013-05-28 08:45:00,
2013-05-28 05:00:00,57.7,48.4,30.19,ESE,120,0.0,0.0,71,0.00,CLR,,0.00,WeatherDisplay:10.37,2013-05-28 09:00:00,
2013-05-28 05:15:00,57.6,49.0,30.19,ESE,120,0.0,0.0,73,0.00,FEW,,0.00,WeatherDisplay:10.37,2013-05-28 09:15:00,
2013-05-28 05:30:00,57.9,50.0,30.19,ESE,120,0.0,0.0,75,0.00,FEW,,0.00,WeatherDisplay:10.37,2013-05-28 09:30:00,
2013-05-28 05:45:00,57.7,50.2,30.19,ESE,120,0.0,0.0,76,0.00,FEW,,0.00,WeatherDisplay:10.37,2013-05-28 09:45:00,
2013-05-28 06:00:00,57.9,50.8,30.19,ESE,120,0.0,0.0,77,0.00,FEW,,0.00,WeatherDisplay:10.37,2013-05-28 10:00:00,
2013-05-28 06:15:00,58.1,51.3,30.19,ESE,120,0.0,0.0,78,0.00,CLR,,0.00,WeatherDisplay:10.37,2013-05-28 10:15:00,
2013-05-28 06:30:00,59.2,52.0,30.19,ESE,120,0.0,0.0,77,0.00,CLR,,0.00,WeatherDisplay:10.37,2013-05-28 10:30:00,
2013-05-28 06:45:00,60.1,52.8,30.19,SE,125,0.0,0.0,77,0.00,CLR,,0.00,WeatherDisplay:10.37,2013-05-28 10:45:00,
2013-05-28 07:00:00,60.4,52.8,30.19,SSE,154,0.0,0.0,76,0.00,CLR,,0.00,WeatherDisplay:10.37,2013-05-28 11:00:00,
2013-05-28 07:15:00,60.8,52.8,30.19,SE,135,0.0,0.0,75,0.00,CLR,,0.00,WeatherDisplay:10.37,2013-05-28 11:15:00,
2013-05-28 07:30:00,60.8,52.8,30.19,ESE,120,0.0,0.0,75,0.00,CLR,,0.00,WeatherDisplay:10.37,2013-05-28 11:30:00,
2013-05-28 07:45:00,60.8,53.9,30.22,ESE,120,0.0,0.0,78,0.00,CLR,,0.00,WeatherDisplay:10.37,2013-05-28 11:45:00,
2013-05-28 08:00:00,61.2,54.9,30.22,WNW,295,0.0,0.0,80,0.00,CLR,,0.00,WeatherDisplay:10.37,2013-05-28 12:00:00,
2013-05-28 08:15:00,61.2,55.3,30.22,South,178,0.0,2.0,81,0.00,CLR,,0.00,WeatherDisplay:10.37,2013-05-28 12:15:00,
2013-05-28 08:30:00,61.9,56.3,30.22,SE,146,0.0,0.0,82,0.00,CLR,,0.00,WeatherDisplay:10.37,2013-05-28 12:30:00,
2013-05-28 08:45:00,62.2,56.3,30.22,SE,130,0.0,0.0,81,0.00,OVC,,0.00,WeatherDisplay:10.37,2013-05-28 12:45:00,
2013-05-28 09:00:00,62.1,56.2,30.22,SE,140,0.0,0.0,81,0.00,BKN,,0.00,WeatherDisplay:10.37,2013-05-28 13:00:00,
2013-05-28 09:15:00,61.9,56.3,30.22,SSW,197,0.0,1.0,82,0.00,SCT,,0.00,WeatherDisplay:10.37,2013-05-28 13:15:00,
2013-05-28 09:30:00,62.2,55.3,30.22,SE,145,0.0,3.0,78,0.00,SCT,,0.00,WeatherDisplay:10.37,2013-05-28 13:30:00,
2013-05-28 09:45:00,62.1,55.1,30.22,WSW,239,1.0,3.0,78,0.00,BKN,,0.00,WeatherDisplay:10.37,2013-05-28 13:45:00,
2013-05-28 10:00:00,61.0,54.4,30.22,SE,124,1.0,2.0,79,0.04,RA,,0.04,WeatherDisplay:10.37,2013-05-28 14:00:00,
2013-05-28 10:15:00,60.4,55.3,30.22,SE,145,0.0,2.0,83,0.00,OVC,,0.04,WeatherDisplay:10.37,2013-05-28 14:15:00,
2013-05-28 10:30:00,60.8,55.9,30.22,SE,145,0.0,0.0,84,0.01,OVC,,0.06,WeatherDisplay:10.37,2013-05-28 14:30:00,
2013-05-28 10:45:00,61.5,57.3,30.19,East,97,0.0,0.0,86,0.00,CLR,,0.06,WeatherDisplay:10.37,2013-05-28 14:45:00,
2013-05-28 11:00:00,61.3,57.1,30.19,SE,128,0.0,2.0,86,0.00,OVC,,0.06,WeatherDisplay:10.37,2013-05-28 15:00:00,
2013-05-28 11:15:00,61.2,56.3,30.19,ESE,109,1.0,3.0,84,0.00,CLR,,0.06,WeatherDisplay:10.37,2013-05-28 15:15:00,
2013-05-28 11:30:00,60.4,55.3,30.19,South,171,1.0,4.0,83,0.00,CLR,,0.06,WeatherDisplay:10.37,2013-05-28 15:30:00,
2013-05-28 11:45:00,60.3,55.4,30.22,SE,135,1.0,1.0,84,0.03,RA,,0.09,WeatherDisplay:10.37,2013-05-28 15:45:00,
2013-05-28 12:00:00,60.8,56.6,30.22,East,90,0.0,2.0,86,0.11,RA,,0.20,WeatherDisplay:10.37,2013-05-28 16:00:00,
2013-05-28 12:15:00,61.0,57.7,30.19,SE,143,2.0,7.0,89,0.06,RA,,0.25,WeatherDisplay:10.37,2013-05-28 16:15:00,
2013-05-28 12:30:00,61.9,59.5,30.19,SE,128,5.0,7.0,92,0.00,OVC,,0.25,WeatherDisplay:10.37,2013-05-28 16:30:00,
2013-05-28 12:45:00,61.9,59.2,30.19,SE,139,5.0,7.0,91,0.00,OVC,,0.25,WeatherDisplay:10.37,2013-05-28 16:45:00,
2013-05-28 13:00:00,61.2,58.8,30.19,SE,128,3.0,7.0,92,0.01,RA,,0.27,WeatherDisplay:10.37,2013-05-28 17:00:00,
2013-05-28 13:15:00,62.2,60.2,30.19,SE,126,2.0,7.0,93,0.00,BKN,,0.27,WeatherDisplay:10.37,2013-05-28 17:15:00,
2013-05-28 13:30:00,62.2,59.9,30.19,SE,125,5.0,8.0,92,0.00,BKN,,0.27,WeatherDisplay:10.37,2013-05-28 17:30:00,
2013-05-28 13:45:00,63.0,60.3,30.16,ESE,103,5.0,8.0,91,0.00,BKN,,0.27,WeatherDisplay:10.37,2013-05-28 17:45:00,
2013-05-28 14:00:00,63.7,60.7,30.16,SE,140,5.0,10.0,90,0.00,BKN,,0.27,WeatherDisplay:10.37,2013-05-28 18:00:00,
2013-05-28 14:15:00,64.9,58.6,30.16,SSE,157,7.0,10.0,80,0.00,BKN,,0.27,WeatherDisplay:10.37,2013-05-28 18:15:00,
2013-05-28 14:30:00,65.5,58.1,30.16,SE,144,6.0,9.0,77,0.00,BKN,,0.27,WeatherDisplay:10.37,2013-05-28 18:30:00,
2013-05-28 14:45:00,64.6,55.7,30.16,ESE,116,3.0,8.0,73,0.00,SCT,,0.27,WeatherDisplay:10.37,2013-05-28 18:45:00,
2013-05-28 15:00:00,65.7,57.1,30.16,ESE,123,5.0,8.0,74,0.00,SCT,,0.27,WeatherDisplay:10.37,2013-05-28 19:00:00,
2013-05-28 15:15:00,66.7,57.0,30.16,SE,140,3.0,5.0,71,0.00,FEW,,0.27,WeatherDisplay:10.37,2013-05-28 19:15:00,
2013-05-28 15:30:00,67.1,56.2,30.16,SE,124,5.0,8.0,68,0.00,FEW,,0.27,WeatherDisplay:10.37,2013-05-28 19:30:00,
2013-05-28 15:45:00,67.6,56.7,30.16,SSE,154,3.0,8.0,68,0.00,FEW,,0.27,WeatherDisplay:10.37,2013-05-28 19:45:00,
2013-05-28 16:00:00,69.6,56.5,30.16,ESE,123,3.0,9.0,63,0.00,FEW,,0.27,WeatherDisplay:10.37,2013-05-28 20:00:00,
2013-05-28 16:15:00,70.9,56.8,30.13,SE,138,5.0,9.0,61,0.00,FEW,,0.27,WeatherDisplay:10.37,2013-05-28 20:15:00,
2013-05-28 16:30:00,68.9,55.8,30.13,East,95,3.0,6.0,63,0.00,FEW,,0.27,WeatherDisplay:10.37,2013-05-28 20:30:00,
2013-05-28 16:45:00,68.0,55.4,30.13,SE,137,3.0,7.0,64,0.00,CLR,,0.27,WeatherDisplay:10.37,2013-05-28 20:45:00,
2013-05-28 17:00:00,66.7,55.0,30.13,SE,144,5.0,7.0,66,0.00,FEW,,0.27,WeatherDisplay:10.37,2013-05-28 21:00:00,
2013-05-28 17:15:00,66.7,55.0,30.13,ESE,120,6.0,8.0,66,0.00,FEW,,0.27,WeatherDisplay:10.37,2013-05-28 21:15:00,
2013-05-28 17:30:00,67.8,55.6,30.13,SSE,155,7.0,7.0,65,0.00,BKN,,0.27,WeatherDisplay:10.37,2013-05-28 21:30:00,
2013-05-28 17:45:00,69.1,56.0,30.13,SE,145,6.0,7.0,63,0.00,BKN,,0.27,WeatherDisplay:10.37,2013-05-28 21:45:00,
2013-05-28 18:00:00,69.3,55.2,30.13,SE,143,6.0,6.0,61,0.00,BKN,,0.27,WeatherDisplay:10.37,2013-05-28 22:00:00,
2013-05-28 18:15:00,70.3,55.3,30.10,ESE,123,7.0,11.0,59,0.00,SCT,,0.27,WeatherDisplay:10.37,2013-05-28 22:15:00,
2013-05-28 18:30:00,69.4,54.5,30.10,SE,143,7.0,10.0,59,0.00,SCT,,0.27,WeatherDisplay:10.37,2013-05-28 22:30:00,
2013-05-28 18:45:00,68.7,54.7,30.13,South,176,9.0,12.0,61,0.00,SCT,,0.27,WeatherDisplay:10.37,2013-05-28 22:45:00,
2013-05-28 19:00:00,68.2,54.2,30.13,SSE,158,8.0,10.0,61,0.00,SCT,,0.27,WeatherDisplay:10.37,2013-05-28 23:00:00,
2013-05-28 19:15:00,67.3,54.3,30.13,SE,143,7.0,9.0,63,0.00,FEW,,0.27,WeatherDisplay:10.37,2013-05-28 23:15:00,
2013-05-28 19:30:00,66.6,54.0,30.13,SSE,151,5.0,10.0,64,0.00,FEW,,0.27,WeatherDisplay:10.37,2013-05-28 23:30:00,
2013-05-28 19:45:00,66.2,53.7,30.13,SSE,157,7.0,9.0,64,0.00,BKN,,0.27,WeatherDisplay:10.37,2013-05-28 23:45:00,
2013-05-28 20:00:00,65.8,53.7,30.10,SE,146,6.0,8.0,65,0.00,BKN,,0.27,WeatherDisplay:10.37,2013-05-29 00:00:00,
2013-05-28 20:15:00,65.3,53.2,30.10,SSE,162,6.0,10.0,65,0.00,BKN,,0.27,WeatherDisplay:10.37,2013-05-29 00:15:00,
2013-05-28 20:30:00,64.9,52.5,30.10,SSE,149,3.0,7.0,64,0.00,BKN,,0.27,WeatherDisplay:10.37,2013-05-29 00:30:00,
2013-05-28 20:45:00,64.9,52.0,30.10,East,97,5.0,7.0,63,0.00,BKN,,0.27,WeatherDisplay:10.37,2013-05-29 00:45:00,
2013-05-28 21:00:00,64.9,51.2,30.10,SSE,156,5.0,9.0,61,0.00,BKN,,0.27,WeatherDisplay:10.37,2013-05-29 01:00:00,
2013-05-28 21:15:00,64.4,51.1,30.10,SSE,150,8.0,9.0,62,0.00,BKN,,0.27,WeatherDisplay:10.37,2013-05-29 01:15:00,
2013-05-28 21:30:00,64.2,51.8,30.10,SSE,158,7.0,9.0,64,0.00,BKN,,0.27,WeatherDisplay:10.37,2013-05-29 01:30:00,
2013-05-28 21:45:00,64.0,51.6,30.10,SE,142,5.0,6.0,64,0.00,FEW,,0.27,WeatherDisplay:10.37,2013-05-29 01:45:00,
2013-05-28 22:00:00,64.2,52.2,30.13,SE,142,5.0,10.0,65,0.00,FEW,,0.27,WeatherDisplay:10.37,2013-05-29 02:00:00,
2013-05-28 22:15:00,64.2,51.8,30.13,East,92,7.0,10.0,64,0.00,BKN,,0.27,WeatherDisplay:10.37,2013-05-29 02:15:00,
2013-05-28 22:30:00,64.4,51.5,30.13,SSE,149,6.0,11.0,63,0.00,BKN,,0.27,WeatherDisplay:10.37,2013-05-29 02:30:00,
2013-05-28 22:45:00,64.2,51.8,30.13,SSE,150,7.0,10.0,64,0.00,BKN,,0.27,WeatherDisplay:10.37,2013-05-29 02:45:00,
2013-05-28 23:00:00,64.2,51.8,30.13,SSE,156,7.0,7.0,64,0.00,OVC,,0.27,WeatherDisplay:10.37,2013-05-29 03:00:00,
2013-05-28 23:15:00,64.4,52.0,30.13,South,174,6.0,9.0,64,0.00,BKN,,0.27,WeatherDisplay:10.37,2013-05-29 03:15:00,
2013-05-28 23:30:00,64.0,52.0,30.13,South,177,6.0,8.0,65,0.00,BKN,,0.27,WeatherDisplay:10.37,2013-05-29 03:30:00,
2013-05-28 23:45:00,63.9,52.3,30.13,SSE,155,3.0,7.0,66,0.00,SCT,,0.27,WeatherDisplay:10.37,2013-05-29 03:45:00,